createdAt,value
2022-09-04T00:02:31.986Z,17.06
2022-09-04T00:05:10.578Z,17.06
2022-09-04T00:07:48.003Z,17.05
2022-09-04T00:10:38.873Z,17.04
2022-09-04T00:13:11.645Z,17.01
2022-09-04T00:15:57.952Z,16.95
2022-09-04T00:18:41.449Z,16.92
2022-09-04T00:21:07.888Z,16.91
2022-09-04T00:23:44.966Z,16.90
2022-09-04T00:26:27.690Z,16.89
2022-09-04T00:28:59.010Z,16.89
2022-09-04T00:31:38.844Z,16.87
2022-09-04T00:34:46.054Z,16.86
2022-09-04T00:37:20.401Z,16.87
2022-09-04T00:40:14.396Z,16.89
2022-09-04T00:43:13.256Z,16.89
2022-09-04T00:46:18.617Z,16.88
2022-09-04T00:49:03.296Z,16.85
2022-09-04T00:51:41.647Z,16.81
2022-09-04T00:54:26.902Z,16.78
2022-09-04T00:57:18.547Z,16.74
2022-09-04T00:59:59.960Z,16.68
2022-09-04T01:02:41.707Z,16.63
2022-09-04T01:09:58.068Z,16.56
2022-09-04T01:12:51.188Z,16.54
2022-09-04T01:15:41.849Z,16.53
2022-09-04T01:18:14.995Z,16.49
2022-09-04T01:21:10.567Z,16.51
2022-09-04T01:23:52.111Z,16.51
2022-09-04T01:26:32.924Z,16.52
2022-09-04T01:29:21.197Z,16.48
2022-09-04T01:31:58.757Z,16.47
2022-09-04T01:34:35.587Z,16.45
2022-09-04T01:37:41.192Z,16.42
2022-09-04T01:40:56.510Z,16.37
2022-09-04T01:43:24.165Z,16.33
2022-09-04T01:46:21.168Z,16.32
2022-09-04T01:49:01.348Z,16.31
2022-09-04T01:51:56.782Z,16.28
2022-09-04T01:54:42.913Z,16.28
2022-09-04T01:57:24.569Z,16.27
2022-09-04T02:00:33.933Z,16.22
2022-09-04T02:03:22.526Z,16.15
2022-09-04T02:06:10.590Z,16.10
2022-09-04T02:08:55.894Z,16.12
2022-09-04T02:11:29.593Z,16.10
2022-09-04T02:14:08.640Z,16.10
2022-09-04T02:16:56.301Z,16.09
2022-09-04T02:19:41.194Z,16.07
2022-09-04T02:22:26.357Z,16.08
2022-09-04T02:25:02.400Z,16.10
2022-09-04T02:28:08.930Z,16.11
2022-09-04T02:30:49.329Z,16.12
2022-09-04T02:34:05.168Z,16.09
2022-09-04T02:36:50.147Z,16.09
2022-09-04T02:39:44.449Z,16.09
2022-09-04T02:42:25.782Z,16.08
2022-09-04T02:45:09.883Z,16.09
2022-09-04T02:48:04.062Z,16.10
2022-09-04T02:50:50.417Z,16.10
2022-09-04T02:53:41.735Z,16.15
2022-09-04T02:56:35.994Z,16.19
2022-09-04T02:59:21.583Z,16.21
2022-09-04T03:02:00.903Z,16.23
2022-09-04T03:04:35.802Z,16.25
2022-09-04T03:07:26.022Z,16.27
2022-09-04T03:10:21.810Z,16.32
2022-09-04T03:12:53.861Z,16.36
2022-09-04T03:15:50.555Z,16.39
2022-09-04T03:18:29.649Z,16.38
2022-09-04T03:21:16.474Z,16.37
2022-09-04T03:23:58.870Z,16.39
2022-09-04T03:26:48.374Z,16.38
2022-09-04T03:29:14.901Z,16.43
2022-09-04T03:32:18.854Z,16.45
2022-09-04T03:34:59.517Z,16.48
2022-09-04T03:37:31.942Z,16.48
2022-09-04T03:40:19.693Z,16.49
2022-09-04T03:43:07.123Z,16.50
2022-09-04T03:45:48.274Z,16.51
2022-09-04T03:48:23.675Z,16.53
2022-09-04T03:51:04.243Z,16.51
2022-09-04T03:53:35.846Z,16.45
2022-09-04T03:56:45.278Z,16.41
2022-09-04T03:59:31.147Z,16.38
2022-09-04T04:02:39.307Z,16.38
2022-09-04T04:05:27.347Z,16.38
2022-09-04T04:08:15.364Z,16.37
2022-09-04T04:10:45.558Z,16.37
2022-09-04T04:13:36.583Z,16.38
2022-09-04T04:16:31.223Z,16.40
2022-09-04T04:19:10.750Z,16.36
2022-09-04T04:21:55.498Z,16.27
2022-09-04T04:24:41.403Z,16.16
2022-09-04T04:27:36.076Z,16.04
2022-09-04T04:30:07.105Z,15.96
2022-09-04T04:32:51.550Z,15.90
2022-09-04T04:35:25.048Z,15.87
2022-09-04T04:38:07.617Z,15.91
2022-09-04T04:40:50.116Z,15.92
2022-09-04T04:43:40.851Z,15.92
2022-09-04T04:46:34.743Z,15.92
2022-09-04T04:49:28.474Z,15.92
2022-09-04T04:52:32.619Z,15.91
2022-09-04T04:55:21.330Z,15.85
2022-09-04T04:58:06.155Z,15.87
2022-09-04T05:00:45.451Z,15.90
2022-09-04T05:03:43.046Z,15.93
2022-09-04T05:06:36.323Z,15.95
2022-09-04T05:09:23.493Z,15.97
2022-09-04T05:12:00.301Z,16.01
2022-09-04T05:14:38.639Z,16.02
2022-09-04T05:17:17.198Z,16.01
2022-09-04T05:20:34.968Z,16.02
2022-09-04T05:23:29.613Z,16.05
2022-09-04T05:26:33.134Z,16.08
2022-09-04T05:29:37.021Z,16.08
2022-09-04T05:32:28.859Z,16.09
2022-09-04T05:35:17.837Z,16.15
2022-09-04T05:38:22.397Z,16.25
2022-09-04T05:41:07.667Z,16.33
2022-09-04T05:43:50.042Z,16.44
2022-09-04T05:46:19.330Z,16.56
2022-09-04T05:49:05.880Z,16.67
2022-09-04T05:52:04.733Z,16.73
2022-09-04T05:54:59.151Z,16.85
2022-09-04T05:57:37.870Z,16.96
2022-09-04T06:00:16.414Z,17.02
2022-09-04T06:03:20.752Z,17.08
2022-09-04T06:06:24.715Z,17.17
2022-09-04T06:09:28.664Z,17.18
2022-09-04T06:12:28.878Z,17.13
2022-09-04T06:15:32.944Z,17.13
2022-09-04T06:18:18.294Z,17.19
2022-09-04T06:21:43.881Z,17.27
2022-09-04T06:24:19.238Z,17.30
2022-09-04T06:27:23.351Z,17.36
2022-09-04T06:29:53.122Z,17.40
2022-09-04T06:32:19.555Z,17.46
2022-09-04T06:35:09.461Z,17.58
2022-09-04T06:38:01.340Z,17.69
2022-09-04T06:40:43.092Z,17.81
2022-09-04T06:43:32.636Z,17.94
2022-09-04T06:46:29.852Z,18.05
2022-09-04T06:49:18.912Z,18.14
2022-09-04T06:51:57.617Z,18.25
2022-09-04T06:54:46.364Z,18.27
2022-09-04T06:57:25.930Z,18.24
2022-09-04T06:59:58.461Z,18.24
2022-09-04T07:02:28.889Z,18.22
2022-09-04T07:05:17.854Z,18.20
2022-09-04T07:08:13.124Z,18.25
2022-09-04T07:11:14.677Z,18.35
2022-09-04T07:14:16.998Z,18.44
2022-09-04T07:17:05.974Z,18.56
2022-09-04T07:19:35.117Z,18.69
2022-09-04T07:22:07.006Z,18.78
2022-09-04T07:24:52.320Z,18.87
2022-09-04T07:28:00.372Z,18.89
2022-09-04T07:30:31.715Z,18.91
2022-09-04T07:33:07.249Z,18.94
2022-09-04T07:35:39.302Z,18.97
2022-09-04T07:38:36.461Z,19.04
2022-09-04T07:41:21.707Z,19.11
2022-09-04T07:44:05.051Z,19.22
2022-09-04T07:46:50.595Z,19.32
2022-09-04T07:49:30.476Z,19.37
2022-09-04T07:52:25.974Z,19.36
2022-09-04T07:55:22.230Z,19.35
2022-09-04T07:58:14.730Z,19.40
2022-09-04T08:01:01.244Z,19.48
2022-09-04T08:04:00.203Z,19.59
2022-09-04T08:06:37.709Z,19.68
2022-09-04T08:09:23.156Z,19.77
2022-09-04T08:12:11.765Z,19.89
2022-09-04T08:14:45.838Z,19.99
2022-09-04T08:17:42.999Z,20.08
2022-09-04T08:20:17.044Z,20.18
2022-09-04T08:23:01.940Z,20.28
2022-09-04T08:25:40.549Z,20.37
2022-09-04T08:28:25.140Z,20.47
2022-09-04T08:31:08.067Z,20.59
2022-09-04T08:33:37.321Z,20.66
2022-09-04T08:36:11.010Z,20.72
2022-09-04T08:38:56.573Z,20.82
2022-09-04T08:41:36.128Z,20.91
2022-09-04T08:44:36.486Z,20.95
2022-09-04T08:47:28.448Z,21.04
2022-09-04T08:50:10.025Z,21.13
2022-09-04T08:53:03.895Z,21.24
2022-09-04T08:55:58.637Z,21.33
2022-09-04T08:58:49.506Z,21.45
2022-09-04T09:01:44.841Z,21.54
2022-09-04T09:04:19.662Z,21.61
2022-09-04T09:07:03.329Z,21.69
2022-09-04T09:09:32.707Z,21.77
2022-09-04T09:12:57.273Z,21.87
2022-09-04T09:15:51.604Z,21.99
2022-09-04T09:18:41.472Z,22.09
2022-09-04T09:21:31.320Z,22.16
2022-09-04T09:24:14.084Z,22.26
2022-09-04T09:27:14.749Z,22.38
2022-09-04T09:29:53.030Z,22.48
2022-09-04T09:32:41.345Z,22.52
2022-09-04T09:35:26.405Z,22.58
2022-09-04T09:38:20.497Z,22.64
2022-09-04T09:41:14.607Z,22.72
2022-09-04T09:44:09.041Z,22.84
2022-09-04T09:46:50.492Z,22.98
2022-09-04T09:49:50.774Z,23.12
2022-09-04T09:52:51.545Z,23.22
2022-09-04T09:55:36.715Z,23.30
2022-09-04T09:58:34.077Z,23.38
2022-09-04T10:01:09.137Z,23.35
2022-09-04T10:04:11.537Z,23.35
2022-09-04T10:07:17.357Z,23.44
2022-09-04T10:10:04.135Z,23.24
2022-09-04T10:12:59.679Z,23.17
2022-09-04T10:15:45.396Z,23.14
2022-09-04T10:19:05.688Z,23.11
2022-09-04T10:21:50.354Z,23.05
2022-09-04T10:24:44.211Z,22.98
2022-09-04T10:27:10.590Z,22.93
2022-09-04T10:30:00.934Z,22.92
2022-09-04T10:32:33.043Z,22.92
2022-09-04T10:35:03.160Z,22.98
2022-09-04T10:37:47.494Z,23.15
2022-09-04T10:40:43.359Z,23.31
2022-09-04T10:43:30.363Z,23.59
2022-09-04T10:46:26.093Z,23.69
2022-09-04T10:48:58.657Z,23.76
2022-09-04T10:51:39.448Z,23.85
2022-09-04T10:54:30.873Z,23.89
2022-09-04T10:57:31.407Z,24.00
2022-09-04T11:00:32.961Z,24.15
2022-09-04T11:03:29.106Z,24.31
2022-09-04T11:06:17.608Z,24.32
2022-09-04T11:09:10.768Z,24.23
2022-09-04T11:11:52.791Z,24.19
2022-09-04T11:14:54.155Z,24.13
2022-09-04T11:17:58.776Z,24.26
2022-09-04T11:20:45.650Z,24.43
2022-09-04T11:23:19.108Z,24.49
2022-09-04T11:26:13.879Z,24.51
2022-09-04T11:28:51.255Z,24.56
2022-09-04T11:31:32.228Z,24.67
2022-09-04T11:34:30.806Z,24.63
2022-09-04T11:37:29.424Z,24.59
2022-09-04T11:40:08.956Z,24.59
2022-09-04T11:43:14.104Z,24.64
2022-09-04T11:45:56.472Z,24.66
2022-09-04T11:48:53.359Z,24.70
2022-09-04T11:51:34.416Z,24.94
2022-09-04T11:54:11.999Z,25.25
2022-09-04T11:56:54.234Z,25.51
2022-09-04T11:59:33.012Z,25.77
2022-09-04T12:02:23.983Z,25.94
2022-09-04T12:04:53.550Z,26.10
2022-09-04T12:07:43.424Z,26.23
2022-09-04T12:10:10.201Z,26.07
2022-09-04T12:12:58.717Z,26.02
2022-09-04T12:15:35.661Z,26.08
2022-09-04T12:18:33.487Z,25.93
2022-09-04T12:21:18.149Z,25.89
2022-09-04T12:24:07.182Z,26.12
2022-09-04T12:27:11.901Z,26.35
2022-09-04T12:29:47.440Z,26.53
2022-09-04T12:32:26.251Z,26.73
2022-09-04T12:34:58.458Z,26.96
2022-09-04T12:37:36.206Z,27.13
2022-09-04T12:40:51.003Z,27.14
2022-09-04T12:43:25.528Z,27.39
2022-09-04T12:46:04.139Z,27.68
2022-09-04T12:48:46.772Z,27.77
2022-09-04T12:51:25.108Z,27.88
2022-09-04T12:53:57.950Z,28.02
2022-09-04T12:56:48.178Z,27.87
2022-09-04T12:59:31.497Z,27.99
2022-09-04T13:02:12.290Z,28.10
2022-09-04T13:04:57.362Z,28.24
2022-09-04T13:07:48.606Z,28.36
2022-09-04T13:10:23.949Z,28.43
2022-09-04T13:13:23.752Z,28.38
2022-09-04T13:16:30.904Z,28.41
2022-09-04T13:19:14.948Z,28.45
2022-09-04T13:22:23.432Z,28.51
2022-09-04T13:25:11.545Z,28.42
2022-09-04T13:27:59.941Z,28.39
2022-09-04T13:30:29.360Z,28.28
2022-09-04T13:33:11.137Z,28.34
2022-09-04T13:35:58.971Z,28.38
2022-09-04T13:38:37.582Z,28.45
2022-09-04T13:41:16.135Z,28.48
2022-09-04T13:44:05.540Z,28.48
2022-09-04T13:46:41.286Z,28.48
2022-09-04T13:49:18.161Z,28.48
2022-09-04T13:51:51.609Z,28.51
2022-09-04T13:54:31.870Z,28.48
2022-09-04T13:57:10.231Z,28.52
2022-09-04T13:59:38.296Z,28.56
2022-09-04T14:02:12.372Z,28.65
2022-09-04T14:04:44.122Z,28.80
2022-09-04T14:07:18.827Z,28.82
2022-09-04T14:09:48.100Z,28.82
2022-09-04T14:12:40.067Z,28.84
2022-09-04T14:15:19.431Z,28.87
2022-09-04T14:18:14.124Z,28.95
2022-09-04T14:20:57.867Z,29.04
2022-09-04T14:23:47.507Z,29.09
2022-09-04T14:26:24.304Z,29.08
2022-09-04T14:29:15.669Z,29.04
2022-09-04T14:31:58.995Z,29.08
2022-09-04T14:34:46.709Z,29.09
2022-09-04T14:37:23.939Z,29.09
2022-09-04T14:40:05.923Z,29.19
2022-09-04T14:42:44.270Z,29.23
2022-09-04T14:45:48.966Z,29.22
2022-09-04T14:48:17.653Z,29.26
2022-09-04T14:50:54.265Z,29.27
2022-09-04T14:53:26.302Z,29.25
2022-09-04T14:56:17.765Z,29.25
2022-09-04T14:58:51.063Z,29.30
2022-09-04T15:01:25.192Z,29.42
2022-09-04T15:04:10.227Z,29.38
2022-09-04T15:07:07.752Z,29.30
2022-09-04T15:09:41.040Z,29.22
2022-09-04T15:12:35.991Z,29.14
2022-09-04T15:15:27.270Z,29.12
2022-09-04T15:18:19.930Z,29.16
2022-09-04T15:21:21.144Z,29.26
2022-09-04T15:24:03.568Z,29.29
2022-09-04T15:26:37.523Z,29.25
2022-09-04T15:29:20.322Z,29.26
2022-09-04T15:31:47.002Z,29.32
2022-09-04T15:34:24.292Z,29.37
2022-09-04T15:36:50.826Z,29.35
2022-09-04T15:39:58.502Z,29.30
2022-09-04T15:42:46.469Z,29.31
2022-09-04T15:45:23.529Z,29.38
2022-09-04T15:48:11.099Z,29.47
2022-09-04T15:50:56.744Z,29.55
2022-09-04T15:53:29.062Z,29.64
2022-09-04T15:56:23.659Z,29.76
2022-09-04T15:59:10.030Z,29.76
2022-09-04T16:02:00.474Z,29.83
2022-09-04T16:04:52.622Z,29.86
2022-09-04T16:07:50.380Z,29.88
2022-09-04T16:10:30.427Z,29.89
2022-09-04T16:13:08.036Z,29.82
2022-09-04T16:15:40.575Z,29.79
2022-09-04T16:18:18.444Z,29.76
2022-09-04T16:20:51.594Z,29.77
2022-09-04T16:23:28.636Z,29.78
2022-09-04T16:25:59.720Z,29.82
2022-09-04T16:28:34.798Z,29.83
2022-09-04T16:31:04.452Z,29.84
2022-09-04T16:33:33.059Z,29.84
2022-09-04T16:36:06.166Z,29.82
2022-09-04T16:38:47.662Z,29.73
2022-09-04T16:41:26.312Z,29.77
2022-09-04T16:44:16.643Z,29.81
2022-09-04T16:47:13.012Z,29.85
2022-09-04T16:49:51.278Z,29.78
2022-09-04T16:52:21.895Z,29.71
2022-09-04T16:55:11.406Z,29.67
2022-09-04T16:58:07.149Z,29.58
2022-09-04T17:01:12.862Z,29.53
2022-09-04T17:04:13.778Z,29.59
2022-09-04T17:07:21.590Z,29.61
2022-09-04T17:10:03.919Z,29.61
2022-09-04T17:12:55.383Z,29.53
2022-09-04T17:15:28.943Z,29.43
2022-09-04T17:17:57.131Z,29.33
2022-09-04T17:23:57.665Z,29.26
2022-09-04T17:28:56.458Z,28.91
2022-09-04T17:28:56.584Z,29.09
2022-09-04T17:29:41.724Z,28.71
2022-09-04T17:32:51.496Z,28.50
2022-09-04T17:40:32.145Z,28.15
2022-09-04T17:40:53.606Z,27.73
2022-09-04T17:42:09.247Z,27.38
2022-09-04T17:45:01.445Z,27.03
2022-09-04T17:47:33.180Z,26.75
2022-09-04T17:50:01.560Z,26.56
2022-09-04T17:52:53.245Z,26.37
2022-09-04T17:55:20.794Z,26.16
2022-09-04T17:58:03.443Z,25.96
2022-09-04T18:00:38.376Z,25.77
2022-09-04T18:03:33.201Z,25.54
2022-09-04T18:06:05.494Z,25.32
2022-09-04T18:08:50.319Z,25.17
2022-09-04T18:11:22.859Z,25.04
2022-09-04T18:14:12.933Z,24.90
2022-09-04T18:17:26.155Z,24.78
2022-09-04T18:20:06.464Z,24.64
2022-09-04T18:22:45.032Z,24.50
2022-09-04T18:25:18.600Z,24.33
2022-09-04T18:28:12.431Z,24.18
2022-09-04T18:37:11.981Z,24.03
2022-09-04T18:37:17.020Z,23.77
2022-09-04T18:37:26.560Z,23.89
2022-09-04T18:40:05.978Z,23.64
2022-09-04T18:50:30.746Z,23.56
2022-09-04T18:50:39.984Z,23.30
2022-09-04T18:50:44.807Z,23.44
2022-09-04T18:51:30.553Z,23.15
2022-09-04T18:54:10.977Z,23.05
2022-09-04T18:56:47.909Z,22.97
2022-09-04T18:59:32.784Z,22.93
2022-09-04T19:02:13.654Z,22.86
2022-09-04T19:04:51.189Z,22.80
2022-09-04T19:07:35.523Z,22.73
2022-09-04T19:10:25.423Z,22.67
2022-09-04T19:12:52.360Z,22.61
2022-09-04T19:15:49.782Z,22.52
2022-09-04T19:18:46.236Z,22.40
2022-09-04T19:21:25.028Z,22.29
2022-09-04T19:23:59.758Z,22.19
2022-09-04T19:26:44.414Z,22.12
2022-09-04T19:29:26.907Z,22.04
2022-09-04T19:32:08.343Z,21.97
2022-09-04T19:34:49.369Z,21.91
2022-09-04T19:40:30.156Z,21.84
2022-09-04T19:46:07.335Z,21.78
2022-09-04T19:46:17.788Z,21.70
2022-09-04T19:46:44.284Z,21.63
2022-09-04T19:52:41.625Z,21.55
2022-09-04T19:53:34.662Z,21.45
2022-09-04T19:55:55.574Z,21.34
2022-09-04T19:58:26.579Z,21.25
2022-09-04T20:01:00.078Z,21.15
2022-09-04T20:03:33.224Z,21.07
2022-09-04T20:06:22.299Z,20.98
2022-09-04T20:09:05.292Z,20.89
2022-09-04T20:11:40.097Z,20.83
2022-09-04T20:14:31.551Z,20.77
2022-09-04T20:17:14.971Z,20.72
2022-09-04T20:19:47.223Z,20.66
2022-09-04T20:22:29.608Z,20.61
2022-09-04T20:25:14.979Z,20.54
2022-09-04T20:27:47.427Z,20.50
2022-09-04T20:30:20.041Z,20.46
2022-09-04T20:33:05.982Z,20.44
2022-09-04T20:35:40.108Z,20.42
2022-09-04T20:38:23.018Z,20.39
2022-09-04T20:41:09.119Z,20.34
2022-09-04T20:43:50.998Z,20.28
2022-09-04T20:52:40.804Z,20.23
2022-09-04T20:52:49.297Z,20.19
2022-09-04T20:52:52.602Z,20.15
2022-09-04T20:55:31.150Z,20.12
2022-09-04T21:03:06.440Z,20.01
2022-09-04T21:03:11.155Z,19.90
2022-09-04T21:04:18.541Z,19.82
2022-09-04T21:07:20.405Z,19.74
2022-09-04T21:10:08.173Z,19.69
2022-09-04T21:12:52.760Z,19.66
2022-09-04T21:15:51.628Z,19.58
2022-09-04T21:19:13.012Z,19.49
2022-09-04T21:22:00.170Z,19.40
2022-09-04T21:24:40.809Z,19.35
2022-09-04T21:27:34.651Z,19.32
2022-09-04T21:30:05.697Z,19.23
2022-09-04T21:32:49.246Z,19.14
2022-09-04T21:35:20.193Z,19.14
2022-09-04T21:38:24.264Z,19.12
2022-09-04T21:41:24.451Z,19.09
2022-09-04T21:44:11.114Z,19.05
2022-09-04T21:46:51.527Z,19.00
2022-09-04T21:49:42.995Z,18.96
2022-09-04T21:52:27.994Z,18.89
2022-09-04T21:57:17.592Z,18.78
2022-09-04T22:02:39.549Z,18.60
2022-09-04T22:02:45.028Z,18.70
2022-09-04T22:04:35.272Z,18.55
2022-09-04T22:10:38.505Z,18.55
2022-09-04T22:13:29.663Z,18.54
2022-09-04T22:13:47.829Z,18.53
2022-09-04T22:16:37.821Z,18.51
2022-09-04T22:19:16.255Z,18.41
2022-09-04T22:21:46.502Z,18.33
2022-09-04T22:24:41.012Z,18.28
2022-09-04T22:28:08.231Z,18.25
2022-09-04T22:30:37.761Z,18.17
2022-09-04T22:33:32.456Z,18.10
2022-09-04T22:36:20.952Z,18.05
2022-09-04T22:39:15.213Z,18.03
2022-09-04T22:42:01.346Z,17.98
2022-09-04T22:44:49.069Z,17.91
2022-09-04T22:47:50.377Z,17.89
2022-09-04T22:50:49.677Z,17.85
2022-09-04T22:53:52.117Z,17.82
2022-09-04T22:56:53.558Z,17.83
2022-09-04T22:59:35.439Z,17.80
2022-09-04T23:02:17.235Z,17.74
2022-09-04T23:05:05.533Z,17.68
2022-09-04T23:13:43.837Z,17.66
2022-09-04T23:13:54.384Z,17.63
2022-09-04T23:14:23.796Z,17.63
2022-09-04T23:17:19.770Z,17.59
2022-09-04T23:26:33.395Z,17.58
2022-09-04T23:26:42.367Z,17.54
2022-09-04T23:27:00.387Z,17.45
2022-09-04T23:30:03.877Z,17.38
2022-09-04T23:32:53.803Z,17.32
2022-09-04T23:35:35.429Z,17.31
2022-09-04T23:38:38.884Z,17.32
2022-09-04T23:41:20.685Z,17.30
2022-09-04T23:44:11.345Z,17.28
2022-09-04T23:47:20.703Z,17.21
2022-09-04T23:50:09.090Z,17.11
2022-09-04T23:52:54.654Z,17.11
2022-09-04T23:55:49.781Z,17.06
2022-09-04T23:58:47.137Z,17.05
